Time;durP1;ratioP1;P1;durP2;ratioP2;P2;SDS_P1;SDS_P2;PMS_P1;PMS_P2;Temp;Humidity;BMP_temperature;BMP_pressure;BME280_temperature;BME280_humidity;BME280_pressure;Samples;Min_cycle;Max_cycle;Signal;HPM_P1;HPM_P2
2021/12/02 00:01:46;;;;;;;;;1.00;1.00;;;;;13.79;43.12;96585.69;6151739;28;97530;-66
2021/12/02 00:04:50;;;;;;;;;2.00;2.00;;;;;13.53;43.64;96598.88;6150056;28;97512;-66
2021/12/02 00:07:53;;;;;;;;;2.00;2.00;;;;;13.54;43.65;96586.94;6156484;28;97497;-66
2021/12/02 00:10:57;;;;;;;;;2.00;2.00;;;;;13.65;43.58;96585.66;6135265;28;97516;-66
2021/12/02 00:14:06;;;;;;;;;1.60;1.00;;;;;13.37;43.95;96568.56;6150348;28;99003;-66
2021/12/02 00:17:15;;;;;;;;;3.00;3.00;;;;;13.36;44.14;96569.66;6156088;28;97478;-66
2021/12/02 00:23:51;;;;;;;;;2.00;1.80;;;;;13.36;44.29;96580.47;6145674;28;98371;-66
2021/12/02 00:26:54;;;;;;;;;2.00;2.00;;;;;13.37;44.29;96579.38;6151513;28;98384;-66
2021/12/02 00:30:00;;;;;;;;;2.00;2.00;;;;;13.29;44.53;96577.31;6138128;28;97936;-66
2021/12/02 00:33:06;;;;;;;;;2.00;1.00;;;;;13.26;44.65;96582.53;6132740;28;98743;-66
2021/12/02 00:36:10;;;;;;;;;3.40;3.00;;;;;13.38;44.60;96588.31;6134743;28;100229;-65
2021/12/02 00:39:15;;;;;;;;;3.00;3.00;;;;;13.37;44.55;96597.50;6153461;28;98330;-65
2021/12/02 00:42:19;;;;;;;;;2.00;2.00;;;;;13.52;44.24;96597.28;6144353;28;97733;-65
2021/12/02 00:45:22;;;;;;;;;1.60;1.60;;;;;13.30;44.47;96600.59;6122105;28;97927;-65
2021/12/02 00:48:27;;;;;;;;;2.20;2.00;;;;;13.22;44.71;96578.81;6153491;28;98804;-65
2021/12/02 00:51:33;;;;;;;;;3.00;2.00;;;;;13.16;44.98;96579.97;6152941;28;99173;-66
2021/12/02 00:54:41;;;;;;;;;2.00;2.00;;;;;13.18;44.65;96584.00;6152002;28;97458;-65
2021/12/02 00:57:46;;;;;;;;;3.00;2.00;;;;;13.02;45.03;96571.78;6157599;28;97850;-65
2021/12/02 01:00:52;;;;;;;;;2.00;2.00;;;;;13.15;44.85;96587.28;6140097;28;99637;-65
2021/12/02 01:03:59;;;;;;;;;2.00;2.00;;;;;13.13;44.91;96581.38;6155769;28;97181;-65
2021/12/02 01:07:03;;;;;;;;;2.00;2.00;;;;;13.33;44.46;96594.59;6157113;28;98398;-65
2021/12/02 01:10:08;;;;;;;;;3.00;3.00;;;;;13.30;44.56;96599.78;6157142;28;98098;-65
2021/12/02 01:13:12;;;;;;;;;2.25;2.00;;;;;13.31;44.62;96582.44;6148790;28;97777;-65
2021/12/02 01:16:17;;;;;;;;;1.50;1.50;;;;;13.26;44.68;96588.75;6156514;28;97594;-66
2021/12/02 01:19:21;;;;;;;;;2.00;2.00;;;;;13.16;44.81;96598.91;6156301;28;97641;-66
2021/12/02 01:22:27;;;;;;;;;3.00;2.00;;;;;13.20;44.92;96586.41;6150824;28;97532;-66
2021/12/02 01:25:31;;;;;;;;;1.00;1.00;;;;;13.23;44.70;96583.94;6138344;28;98622;-66
2021/12/02 01:28:36;;;;;;;;;1.00;1.00;;;;;13.27;44.53;96571.41;6157844;28;97569;-65
2021/12/02 01:31:39;;;;;;;;;1.00;1.00;;;;;13.19;44.45;96549.66;6149610;28;97878;-66
2021/12/02 01:34:47;;;;;;;;;2.00;2.00;;;;;13.38;44.39;96567.47;6152262;28;97887;-65
2021/12/02 01:37:51;;;;;;;;;1.60;1.60;;;;;13.33;44.38;96583.78;6154624;28;96856;-65
2021/12/02 01:40:55;;;;;;;;;1.80;1.80;;;;;13.41;44.01;96571.47;6153163;28;98584;-66
2021/12/02 01:43:58;;;;;;;;;2.40;2.00;;;;;13.51;43.90;96586.72;6133687;28;97536;-65
2021/12/02 01:47:02;;;;;;;;;3.00;2.00;;;;;13.48;44.12;96593.56;6160112;28;97808;-65
2021/12/02 01:50:15;;;;;;;;;3.00;3.00;;;;;13.43;44.20;96585.50;6158369;28;98261;-65
2021/12/02 01:53:20;;;;;;;;;3.00;2.60;;;;;13.38;44.25;96599.94;6145449;28;96821;-65
2021/12/02 01:56:31;;;;;;;;;2.00;2.00;;;;;13.52;44.02;96591.06;6140883;28;96907;-65
2021/12/02 01:59:37;;;;;;;;;2.50;2.50;;;;;13.57;43.81;96585.56;6136093;28;98203;-65
2021/12/02 02:02:40;;;;;;;;;2.00;2.00;;;;;13.59;43.82;96588.75;6151057;28;96764;-65
2021/12/02 02:05:57;;;;;;;;;2.20;2.20;;;;;13.47;43.91;96594.66;6160577;28;97739;-65
2021/12/02 02:09:01;;;;;;;;;3.00;3.00;;;;;13.51;43.55;96589.44;6156349;28;97667;-64
2021/12/02 02:12:08;;;;;;;;;2.20;2.20;;;;;13.44;44.01;96584.41;6151795;28;99587;-65
2021/12/02 02:15:11;;;;;;;;;3.00;3.00;;;;;13.51;44.28;96589.44;6155338;28;97880;-65
2021/12/02 02:18:19;;;;;;;;;1.60;1.60;;;;;13.58;43.94;96587.97;6156754;28;97498;-65
2021/12/02 02:21:24;;;;;;;;;3.50;3.50;;;;;13.67;43.65;96609.75;6151634;28;98981;-65
2021/12/02 02:24:28;;;;;;;;;3.00;2.40;;;;;13.62;43.75;96596.28;6151165;28;97889;-66
2021/12/02 02:27:31;;;;;;;;;2.00;2.00;;;;;13.60;43.93;96596.59;6158040;28;98537;-65
2021/12/02 02:30:35;;;;;;;;;3.00;2.25;;;;;13.47;44.03;96602.75;6141118;28;98125;-65
2021/12/02 02:33:39;;;;;;;;;2.40;2.40;;;;;13.42;44.15;96592.81;6148496;28;97034;-65
2021/12/02 02:36:51;;;;;;;;;2.00;2.00;;;;;13.45;44.14;96608.47;6156923;28;97624;-65
2021/12/02 02:39:55;;;;;;;;;3.80;3.80;;;;;13.49;44.00;96614.09;6140019;28;98554;-66
2021/12/02 02:43:05;;;;;;;;;2.00;2.00;;;;;13.29;44.50;96606.31;6148077;28;98121;-65
2021/12/02 02:46:08;;;;;;;;;3.00;3.00;;;;;13.20;44.69;96621.56;6137867;28;96971;-65
2021/12/02 02:49:14;;;;;;;;;4.00;4.00;;;;;13.21;44.72;96615.88;6155344;28;97979;-64
2021/12/02 02:52:18;;;;;;;;;3.00;3.00;;;;;13.23;44.70;96612.88;6134295;28;98292;-65
2021/12/02 02:55:24;;;;;;;;;3.00;3.00;;;;;13.19;44.92;96614.56;6127439;28;97948;-65
2021/12/02 02:58:34;;;;;;;;;3.40;3.40;;;;;13.36;44.69;96610.25;6157077;28;98405;-65
2021/12/02 03:01:48;;;;;;;;;4.00;4.00;;;;;13.40;44.64;96610.44;6151022;28;97973;-66
2021/12/02 03:04:56;;;;;;;;;3.00;3.00;;;;;13.30;44.84;96616.81;6151741;28;97338;-65
2021/12/02 03:08:12;;;;;;;;;3.00;3.00;;;;;13.34;44.84;96608.94;6156091;28;97498;-65
2021/12/02 03:11:17;;;;;;;;;3.25;3.00;;;;;13.34;44.91;96619.75;6153737;28;98364;-65
2021/12/02 03:14:28;;;;;;;;;2.00;2.00;;;;;13.26;44.53;96596.06;6152150;28;97962;-65
2021/12/02 03:17:31;;;;;;;;;3.80;3.80;;;;;13.38;44.48;96610.75;6153224;28;96909;-65
2021/12/02 03:20:34;;;;;;;;;4.00;4.00;;;;;13.35;44.43;96632.97;6154940;28;98525;-65
2021/12/02 03:23:49;;;;;;;;;4.00;4.00;;;;;13.28;44.51;96612.81;6145292;28;97975;-65
2021/12/02 03:26:53;;;;;;;;;3.00;3.00;;;;;13.28;44.17;96619.03;6155685;28;97516;-65
2021/12/02 03:29:56;;;;;;;;;4.00;4.00;;;;;13.43;44.32;96620.69;6154363;28;97908;-65
2021/12/02 03:32:59;;;;;;;;;3.00;3.00;;;;;13.26;44.63;96626.63;6126495;28;97010;-64
2021/12/02 03:36:03;;;;;;;;;3.00;3.00;;;;;13.39;44.39;96625.88;6153969;28;97920;-65
2021/12/02 03:39:10;;;;;;;;;2.00;2.00;;;;;13.47;44.09;96646.06;6156605;28;97053;-65
2021/12/02 03:42:14;;;;;;;;;2.00;2.00;;;;;13.36;44.26;96636.50;6144497;28;97623;-65
2021/12/02 03:45:18;;;;;;;;;3.00;3.00;;;;;13.25;44.53;96629.63;6135916;28;97861;-64
2021/12/02 03:48:22;;;;;;;;;3.00;3.00;;;;;13.30;44.43;96626.84;6140498;28;97628;-65
2021/12/02 03:51:25;;;;;;;;;4.00;4.00;;;;;13.34;44.31;96630.59;6136792;28;98477;-65
2021/12/02 03:54:30;;;;;;;;;5.00;5.00;;;;;13.23;44.30;96637.25;6134590;28;97065;-64
2021/12/02 03:57:33;;;;;;;;;4.00;4.00;;;;;13.23;44.38;96626.41;6154166;28;99106;-65
2021/12/02 04:00:37;;;;;;;;;4.00;3.00;;;;;13.15;44.64;96622.44;6157607;28;97931;-65
2021/12/02 04:03:41;;;;;;;;;3.40;3.00;;;;;13.31;44.56;96628.44;6147907;28;96861;-65
2021/12/02 04:06:44;;;;;;;;;3.00;3.00;;;;;13.15;44.70;96625.16;6156287;28;97175;-65
2021/12/02 04:09:49;;;;;;;;;5.00;4.25;;;;;13.13;44.87;96616.56;6140871;28;97088;-65
2021/12/02 04:13:01;;;;;;;;;3.00;3.00;;;;;13.11;44.79;96618.72;6128799;28;99477;-65
2021/12/02 04:16:13;;;;;;;;;2.00;2.00;;;;;13.08;44.72;96624.72;6127636;28;97935;-65
2021/12/02 04:19:17;;;;;;;;;3.00;3.00;;;;;13.03;44.75;96622.06;6156789;28;97742;-65
2021/12/02 04:22:20;;;;;;;;;3.00;2.00;;;;;13.07;44.74;96625.78;6143972;28;97673;-65
2021/12/02 04:25:26;;;;;;;;;4.00;4.00;;;;;13.10;44.58;96627.91;6138381;28;97890;-65
2021/12/02 04:28:29;;;;;;;;;3.00;3.00;;;;;13.08;44.67;96619.28;6118849;28;97115;-64
2021/12/02 04:31:33;;;;;;;;;3.00;3.00;;;;;13.01;44.73;96616.94;6151338;28;97437;-65
2021/12/02 04:34:36;;;;;;;;;4.00;3.20;;;;;13.00;44.70;96620.75;6162911;28;98232;-65
2021/12/02 04:37:40;;;;;;;;;4.20;4.00;;;;;12.81;45.05;96616.41;6137572;28;98319;-64
2021/12/02 04:40:44;;;;;;;;;4.00;3.50;;;;;12.85;45.17;96620.16;6150022;28;98656;-65
2021/12/02 04:43:48;;;;;;;;;4.00;4.00;;;;;12.93;45.09;96633.03;6150226;28;96724;-65
2021/12/02 04:46:53;;;;;;;;;4.00;3.00;;;;;12.80;45.29;96634.56;6140339;28;96871;-64
2021/12/02 04:49:56;;;;;;;;;3.60;3.00;;;;;12.52;45.66;96627.31;6153329;28;99670;-64
2021/12/02 04:53:00;;;;;;;;;2.00;2.00;;;;;12.64;45.48;96627.72;6150864;28;99070;-65
2021/12/02 04:56:06;;;;;;;;;3.00;3.00;;;;;12.76;45.50;96641.63;6137796;28;99489;-65
2021/12/02 04:59:09;;;;;;;;;2.75;2.75;;;;;12.69;45.47;96646.59;6138809;28;98789;-65
2021/12/02 05:02:12;;;;;;;;;2.67;2.67;;;;;12.59;45.44;96641.31;6127960;28;99510;-66
2021/12/02 05:05:16;;;;;;;;;2.75;2.75;;;;;12.69;45.49;96632.28;6153177;28;98283;-66
2021/12/02 05:08:19;;;;;;;;;2.00;2.00;;;;;12.65;45.05;96648.28;6137093;28;98557;-66
2021/12/02 05:11:24;;;;;;;;;2.00;2.00;;;;;12.62;45.27;96653.44;6148152;28;97781;-65
2021/12/02 05:14:28;;;;;;;;;3.50;3.00;;;;;12.64;45.32;96646.66;6149979;28;96826;-66
2021/12/02 05:17:32;;;;;;;;;3.00;3.00;;;;;12.73;45.16;96647.63;6156197;28;96897;-66
2021/12/02 05:20:36;;;;;;;;;3.00;3.00;;;;;12.57;45.31;96655.09;6137105;28;97888;-65
2021/12/02 05:23:40;;;;;;;;;3.00;3.00;;;;;12.40;45.45;96649.38;6151819;28;98512;-65
2021/12/02 05:26:46;;;;;;;;;3.00;3.00;;;;;12.49;45.53;96641.44;6149628;28;97271;-65
2021/12/02 05:29:56;;;;;;;;;4.00;4.00;;;;;12.72;45.21;96651.41;6148992;28;98633;-65
2021/12/02 05:32:59;;;;;;;;;3.00;3.00;;;;;12.73;45.10;96653.03;6143261;28;98648;-65
2021/12/02 05:36:02;;;;;;;;;4.00;4.00;;;;;12.75;44.85;96661.66;6137034;28;97716;-65
2021/12/02 05:39:06;;;;;;;;;2.00;2.00;;;;;12.71;45.02;96659.81;6150323;28;98124;-65
2021/12/02 05:42:10;;;;;;;;;3.00;3.00;;;;;12.84;44.88;96665.34;6146880;28;98020;-65
2021/12/02 05:45:14;;;;;;;;;4.00;4.00;;;;;12.91;44.43;96671.16;6160827;28;96882;-65
2021/12/02 05:48:17;;;;;;;;;2.80;2.00;;;;;12.72;44.81;96686.56;6136214;28;98397;-65
2021/12/02 05:51:21;;;;;;;;;3.00;2.20;;;;;12.69;44.98;96673.63;6137541;28;98044;-65
2021/12/02 05:54:24;;;;;;;;;3.00;3.00;;;;;12.73;45.11;96677.34;6120871;28;96968;-65
2021/12/02 05:57:31;;;;;;;;;2.00;2.00;;;;;12.72;45.01;96705.47;6149622;28;98072;-66
2021/12/02 06:00:34;;;;;;;;;2.00;2.00;;;;;12.67;45.13;96689.31;6152267;28;97808;-67
2021/12/02 06:03:39;;;;;;;;;2.60;2.00;;;;;12.58;45.01;96691.03;6127909;28;99512;-67
2021/12/02 06:06:42;;;;;;;;;2.75;2.75;;;;;12.69;44.74;96691.75;6140699;28;96685;-65
2021/12/02 06:09:46;;;;;;;;;3.60;3.00;;;;;12.65;44.71;96701.53;6136904;28;97813;-65
2021/12/02 06:12:51;;;;;;;;;3.00;3.00;;;;;12.77;44.66;96715.41;6149033;28;97471;-66
2021/12/02 06:15:54;;;;;;;;;3.00;3.00;;;;;12.76;44.50;96708.41;6134345;28;99610;-66
2021/12/02 06:18:57;;;;;;;;;2.00;2.00;;;;;12.76;44.59;96719.22;6138112;28;98800;-67
2021/12/02 06:22:01;;;;;;;;;4.00;4.00;;;;;12.59;45.00;96725.91;6141736;28;98104;-68
2021/12/02 06:25:17;;;;;;;;;4.00;4.00;;;;;12.64;45.30;96733.16;6152280;28;99351;-67
2021/12/02 06:28:22;;;;;;;;;2.00;2.00;;;;;12.59;45.39;96736.72;6129293;28;97150;-68
2021/12/02 06:31:26;;;;;;;;;2.00;2.00;;;;;12.69;45.51;96733.09;6149669;28;98168;-67
2021/12/02 06:34:29;;;;;;;;;2.00;2.00;;;;;12.65;45.58;96732.06;6127220;28;97534;-66
2021/12/02 06:37:32;;;;;;;;;4.00;3.00;;;;;12.74;45.31;96735.75;6137291;28;97483;-66
2021/12/02 06:40:38;;;;;;;;;4.50;4.00;;;;;12.77;45.25;96745.97;6141041;28;97685;-65
2021/12/02 06:43:43;;;;;;;;;4.00;4.00;;;;;12.87;45.15;96753.97;6146680;28;97355;-66
2021/12/02 06:46:46;;;;;;;;;3.50;3.00;;;;;12.87;45.02;96750.47;6155045;28;97264;-68
2021/12/02 06:49:50;;;;;;;;;3.00;3.00;;;;;13.06;44.38;96748.59;6138072;28;100686;-68
2021/12/02 06:52:54;;;;;;;;;3.00;2.00;;;;;13.20;44.19;96752.25;6145036;28;99652;-66
2021/12/02 06:55:57;;;;;;;;;4.00;3.00;;;;;13.31;43.85;96759.13;6156193;28;96864;-67
2021/12/02 06:59:02;;;;;;;;;4.00;3.00;;;;;13.32;43.35;96743.72;6151994;28;98088;-67
2021/12/02 07:02:05;;;;;;;;;3.00;3.00;;;;;13.53;43.02;96745.06;6145355;28;97849;-67
2021/12/02 07:05:11;;;;;;;;;3.20;3.20;;;;;13.65;42.58;96731.06;6136733;28;98508;-67
2021/12/02 07:08:14;;;;;;;;;2.00;2.00;;;;;13.79;42.26;96748.16;6141545;28;97480;-68
2021/12/02 07:11:18;;;;;;;;;3.00;3.00;;;;;14.27;41.41;96751.44;6155214;28;97189;-67
2021/12/02 07:14:24;;;;;;;;;2.00;2.00;;;;;14.55;40.27;96753.19;6137289;28;98535;-66
2021/12/02 07:17:28;;;;;;;;;3.00;3.00;;;;;15.76;38.35;96751.81;6119662;28;97017;-67
2021/12/02 07:20:35;;;;;;;;;5.00;4.00;;;;;17.49;35.43;96759.81;6134494;28;98369;-67
2021/12/02 07:23:38;;;;;;;;;3.00;2.80;;;;;19.33;32.19;96759.75;6149830;28;97768;-65
2021/12/02 07:26:43;;;;;;;;;4.00;3.00;;;;;20.81;29.83;96763.75;6153890;28;97823;-66
2021/12/02 07:29:48;;;;;;;;;3.20;3.00;;;;;21.30;28.80;96765.44;6153331;28;98575;-66
2021/12/02 07:32:54;;;;;;;;;3.60;2.00;;;;;20.83;29.19;96764.19;6141684;28;96753;-66
2021/12/02 07:35:58;;;;;;;;;3.00;3.00;;;;;21.53;28.32;96761.09;6150526;28;98391;-67
2021/12/02 07:39:03;;;;;;;;;3.00;3.00;;;;;20.64;29.69;96786.63;6153613;28;97456;-67
2021/12/02 07:42:07;;;;;;;;;2.25;2.25;;;;;19.46;31.07;96792.31;6127797;28;98589;-64
2021/12/02 07:45:13;;;;;;;;;4.00;3.00;;;;;18.52;32.62;96793.38;6113465;28;98048;-66
2021/12/02 07:48:17;;;;;;;;;3.00;3.00;;;;;17.70;34.06;96783.44;6150393;28;98512;-65
2021/12/02 07:51:21;;;;;;;;;3.00;3.00;;;;;17.16;34.75;96787.44;6110131;28;98960;-65
2021/12/02 07:54:24;;;;;;;;;3.40;3.40;;;;;16.98;35.61;96785.75;6130075;28;98385;-66
2021/12/02 07:57:28;;;;;;;;;3.50;3.00;;;;;16.87;35.69;96789.88;6134962;28;98600;-69
2021/12/02 08:00:33;;;;;;;;;3.00;2.20;;;;;16.54;36.48;96796.69;6132921;28;98724;-66
2021/12/02 08:03:37;;;;;;;;;4.00;4.00;;;;;15.92;37.54;96802.81;6145636;28;98343;-66
2021/12/02 08:06:41;;;;;;;;;3.00;3.00;;;;;15.58;37.88;96778.84;6140241;28;98570;-66
2021/12/02 08:09:44;;;;;;;;;3.00;3.00;;;;;15.73;38.10;96804.06;6137058;28;98379;-66
2021/12/02 08:12:50;;;;;;;;;3.00;3.00;;;;;16.00;37.88;96806.69;6123410;28;99915;-68
2021/12/02 08:15:55;;;;;;;;;3.00;2.00;;;;;16.69;36.62;96791.69;6152968;28;96944;-67
2021/12/02 08:19:01;;;;;;;;;3.00;3.00;;;;;17.67;34.70;96803.16;6149717;28;98744;-67
2021/12/02 08:22:04;;;;;;;;;4.00;4.00;;;;;18.50;33.13;96806.56;6143215;28;96769;-65
2021/12/02 08:25:09;;;;;;;;;4.50;3.50;;;;;19.43;31.78;96814.00;6153870;28;97835;-67
2021/12/02 08:28:12;;;;;;;;;3.00;3.00;;;;;20.25;30.52;96802.41;6129699;28;98424;-67
2021/12/02 08:31:17;;;;;;;;;4.00;4.00;;;;;20.42;30.38;96825.31;6148563;28;97691;-67
2021/12/02 08:34:20;;;;;;;;;3.00;3.00;;;;;20.00;30.33;96833.47;6131389;28;96892;-68
2021/12/02 08:37:25;;;;;;;;;3.00;3.00;;;;;19.18;31.60;96814.91;6152186;28;97279;-69
2021/12/02 08:40:34;;;;;;;;;3.00;2.40;;;;;18.55;32.47;96835.63;6153070;28;97268;-66
2021/12/02 08:43:37;;;;;;;;;3.00;3.00;;;;;18.12;33.49;96830.16;6143409;28;100515;-69
2021/12/02 08:46:42;;;;;;;;;3.00;2.80;;;;;17.66;34.47;96833.44;6138287;28;99825;-66
2021/12/02 08:49:46;;;;;;;;;2.25;2.25;;;;;17.17;35.21;96816.25;6155353;28;97060;-67
2021/12/02 08:52:52;;;;;;;;;2.00;2.00;;;;;16.61;36.11;96827.03;6127489;28;100189;-68
2021/12/02 08:55:56;;;;;;;;;2.00;2.00;;;;;16.37;36.73;96844.41;6152377;28;97832;-68
2021/12/02 08:58:59;;;;;;;;;1.00;1.00;;;;;16.19;37.28;96841.84;6132731;28;97862;-67
2021/12/02 09:02:04;;;;;;;;;4.75;4.00;;;;;15.82;38.02;96838.34;6142078;28;97418;-66
2021/12/02 09:05:09;;;;;;;;;4.00;4.00;;;;;15.90;38.25;96842.25;6150215;28;97729;-66
2021/12/02 09:08:13;;;;;;;;;2.00;2.00;;;;;15.61;38.60;96839.88;6148522;28;97229;-67
2021/12/02 09:11:18;;;;;;;;;2.60;2.00;;;;;15.53;39.06;96841.41;6131172;28;96970;-67
2021/12/02 09:14:21;;;;;;;;;2.00;2.00;;;;;15.55;39.09;96851.94;6147716;28;97999;-68
2021/12/02 09:17:26;;;;;;;;;2.75;2.00;;;;;15.60;39.13;96857.28;6153889;28;96752;-67
2021/12/02 09:20:29;;;;;;;;;2.00;2.00;;;;;15.60;39.03;96860.78;6156671;28;98864;-66
2021/12/02 09:23:33;;;;;;;;;2.00;2.00;;;;;15.65;38.96;96864.50;6146924;28;98112;-66
2021/12/02 09:26:36;;;;;;;;;2.00;2.00;;;;;15.55;39.12;96863.63;6155820;28;97566;-65
2021/12/02 09:29:40;;;;;;;;;1.75;1.75;;;;;15.50;39.26;96854.72;6156258;28;98549;-66
2021/12/02 09:32:45;;;;;;;;;3.00;2.00;;;;;15.48;39.42;96855.03;6148874;28;96801;-68
2021/12/02 09:35:48;;;;;;;;;3.00;3.00;;;;;15.58;39.36;96849.44;6137160;28;97375;-67
2021/12/02 09:38:52;;;;;;;;;4.00;3.00;;;;;15.69;39.03;96844.56;6156154;28;97852;-67
2021/12/02 09:41:55;;;;;;;;;2.00;2.00;;;;;15.83;38.99;96839.94;6134620;28;96866;-66
2021/12/02 09:45:00;;;;;;;;;4.00;2.00;;;;;16.26;38.57;96836.81;6150616;28;96934;-66
2021/12/02 09:48:06;;;;;;;;;5.50;4.75;;;;;16.50;37.89;96817.47;6154294;28;98411;-65
2021/12/02 09:51:11;;;;;;;;;2.00;2.00;;;;;16.60;37.39;96825.41;6139927;28;97542;-66
2021/12/02 09:54:38;;;;;;;;;4.00;3.00;;;;;16.81;37.31;96838.16;6155731;28;97792;-67
2021/12/02 09:57:45;;;;;;;;;2.00;2.00;;;;;16.72;36.34;96833.78;6155240;28;96830;-67
2021/12/02 10:00:52;;;;;;;;;2.00;1.00;;;;;16.33;36.29;96835.25;6137456;28;97797;-68
2021/12/02 10:03:58;;;;;;;;;1.20;1.20;;;;;15.83;36.37;96839.16;6149500;28;97304;-66
2021/12/02 10:07:14;;;;;;;;;2.00;2.00;;;;;15.37;37.45;96844.69;6144279;28;98013;-67
2021/12/02 10:10:27;;;;;;;;;3.00;3.00;;;;;15.36;37.39;96841.16;6137966;28;98030;-66
2021/12/02 10:13:36;;;;;;;;;2.00;2.00;;;;;15.33;37.32;96825.47;6158500;28;97815;-66
2021/12/02 10:16:43;;;;;;;;;2.00;2.00;;;;;15.56;37.08;96840.78;6157214;28;96711;-65
2021/12/02 10:20:23;;;;;;;;;2.75;2.00;;;;;15.69;37.15;96846.50;6138331;28;98500;-66
2021/12/02 10:23:29;;;;;;;;;2.00;2.00;;;;;15.93;36.85;96860.66;6142271;28;99002;-65
2021/12/02 10:26:39;;;;;;;;;2.00;2.00;;;;;16.09;37.12;96851.03;6138067;28;98360;-67
2021/12/02 10:29:48;;;;;;;;;3.00;3.00;;;;;16.29;36.75;96866.09;6143808;28;97469;-66
2021/12/02 10:32:53;;;;;;;;;3.00;2.00;;;;;16.29;36.66;96875.06;6151500;28;100829;-67
2021/12/02 10:36:01;;;;;;;;;3.00;3.00;;;;;16.16;36.10;96869.66;6160956;28;98452;-67
2021/12/02 10:39:11;;;;;;;;;3.00;3.00;;;;;16.05;36.42;96866.38;6160231;28;97442;-66
2021/12/02 10:42:19;;;;;;;;;2.00;2.00;;;;;15.53;37.16;96874.00;6125597;28;97972;-66
2021/12/02 10:45:25;;;;;;;;;2.50;2.00;;;;;15.71;37.26;96868.72;6139865;28;97541;-68
2021/12/02 10:48:44;;;;;;;;;3.00;3.00;;;;;15.57;37.55;96866.03;6161198;28;97950;-66
2021/12/02 10:51:51;;;;;;;;;2.50;2.50;;;;;15.52;37.73;96866.13;6132737;28;97457;-67
2021/12/02 10:55:00;;;;;;;;;3.00;3.00;;;;;15.48;38.11;96854.25;6131360;28;97449;-66
2021/12/02 10:58:04;;;;;;;;;2.00;2.00;;;;;15.50;38.12;96863.69;6137093;28;96912;-66
2021/12/02 11:01:07;;;;;;;;;3.00;3.00;;;;;15.57;37.98;96864.13;6149519;28;97914;-67
2021/12/02 11:04:13;;;;;;;;;4.20;4.00;;;;;15.85;37.85;96864.88;6149074;28;98762;-66
2021/12/02 11:07:26;;;;;;;;;2.00;2.00;;;;;15.98;37.67;96857.81;6152593;28;96485;-65
2021/12/02 11:10:34;;;;;;;;;3.00;3.00;;;;;15.97;37.57;96856.22;6157835;28;97408;-64
2021/12/02 11:13:49;;;;;;;;;3.00;3.00;;;;;15.98;37.65;96844.22;6131692;28;96918;-65
2021/12/02 11:16:53;;;;;;;;;2.40;2.40;;;;;16.18;37.33;96867.44;6154519;28;97786;-66
2021/12/02 11:19:58;;;;;;;;;4.00;4.00;;;;;16.29;36.79;96858.75;6155834;28;97694;-65
2021/12/02 11:23:07;;;;;;;;;3.00;3.00;;;;;16.24;36.82;96867.00;6144846;28;97780;-67
2021/12/02 11:26:17;;;;;;;;;3.00;3.00;;;;;16.07;36.59;96860.63;6135821;28;98577;-65
2021/12/02 11:29:20;;;;;;;;;2.00;2.00;;;;;15.72;36.63;96868.44;6155454;28;96953;-66
2021/12/02 11:32:42;;;;;;;;;3.00;3.00;;;;;15.67;36.66;96870.44;6111176;28;98586;-66
2021/12/02 11:35:47;;;;;;;;;4.40;4.40;;;;;15.70;36.73;96870.63;6154365;28;98641;-65
2021/12/02 11:38:59;;;;;;;;;2.00;2.00;;;;;15.49;36.18;96867.50;6118323;28;98476;-66
2021/12/02 11:42:03;;;;;;;;;2.00;2.00;;;;;15.29;36.47;96875.25;6148234;28;97892;-66
2021/12/02 11:45:09;;;;;;;;;3.20;3.00;;;;;15.17;36.36;96868.41;6132486;28;98423;-67
2021/12/02 11:48:13;;;;;;;;;2.20;2.00;;;;;15.04;36.33;96874.63;6138290;28;98922;-65
2021/12/02 11:51:20;;;;;;;;;2.00;1.60;;;;;14.96;36.42;96867.16;6131384;28;99485;-66
2021/12/02 11:54:25;;;;;;;;;2.00;1.50;;;;;15.15;36.37;96872.50;6145428;28;97567;-66
2021/12/02 11:57:30;;;;;;;;;2.00;2.00;;;;;15.20;36.52;96866.19;6154274;28;97502;-66
2021/12/02 12:00:35;;;;;;;;;2.00;1.80;;;;;15.28;36.22;96871.72;6134164;28;98177;-66
2021/12/02 12:03:42;;;;;;;;;2.00;2.00;;;;;15.28;36.42;96868.22;6123195;28;98535;-66
2021/12/02 12:06:54;;;;;;;;;1.00;1.00;;;;;15.31;36.30;96875.75;6150433;28;98534;-66
2021/12/02 12:10:26;;;;;;;;;2.50;2.00;;;;;15.36;36.58;96856.63;6138829;28;97932;-66
2021/12/02 12:13:30;;;;;;;;;4.50;3.00;;;;;15.42;36.51;96864.41;6144081;28;98097;-64
2021/12/02 12:16:36;;;;;;;;;4.00;3.00;;;;;15.34;36.80;96864.31;6149350;28;97605;-66
2021/12/02 12:19:42;;;;;;;;;3.40;2.00;;;;;15.26;36.88;96862.25;6156924;28;97068;-66
2021/12/02 12:22:46;;;;;;;;;3.00;3.00;;;;;15.25;37.40;96864.16;6126339;28;96772;-66
2021/12/02 12:26:18;;;;;;;;;3.00;3.00;;;;;15.18;37.35;96852.91;6131482;28;98765;-65
2021/12/02 12:29:22;;;;;;;;;3.00;3.00;;;;;15.02;37.79;96870.59;6138184;28;99199;-66
2021/12/02 12:32:50;;;;;;;;;3.60;3.00;;;;;15.11;37.69;96863.34;6141318;28;96940;-64
2021/12/02 12:36:03;;;;;;;;;2.25;2.25;;;;;15.07;38.07;96863.16;6154733;28;97712;-66
2021/12/02 12:39:18;;;;;;;;;3.00;3.00;;;;;14.99;38.28;96866.56;6154517;28;97825;-66
2021/12/02 12:42:23;;;;;;;;;4.00;3.25;;;;;14.99;38.34;96865.75;6128359;28;99244;-67
2021/12/02 12:45:30;;;;;;;;;3.00;3.00;;;;;14.98;38.41;96866.84;6134063;28;100302;-66
2021/12/02 12:48:34;;;;;;;;;3.60;3.00;;;;;15.00;38.52;96872.81;6135301;28;97473;-66
2021/12/02 12:51:37;;;;;;;;;4.00;4.00;;;;;15.08;38.40;96872.91;6146803;28;97269;-65
2021/12/02 12:54:41;;;;;;;;;4.00;4.00;;;;;15.04;38.38;96868.38;6149124;28;98084;-66
2021/12/02 12:58:11;;;;;;;;;4.50;4.00;;;;;15.17;38.50;96870.31;6153899;28;97475;-66
2021/12/02 13:01:20;;;;;;;;;5.00;5.00;;;;;15.22;38.28;96875.63;6147759;28;96807;-64
2021/12/02 13:04:26;;;;;;;;;5.00;4.00;;;;;15.20;38.48;96877.84;6146297;28;99637;-66
2021/12/02 13:07:29;;;;;;;;;4.00;4.00;;;;;15.20;38.39;96874.34;6152560;28;97528;-66
2021/12/02 13:10:33;;;;;;;;;4.00;4.00;;;;;15.11;38.63;96880.44;6138107;28;97455;-65
2021/12/02 13:13:41;;;;;;;;;4.60;4.00;;;;;14.99;38.79;96846.78;6140729;28;97211;-66
2021/12/02 13:16:44;;;;;;;;;6.00;6.00;;;;;15.14;38.77;96890.72;6136678;28;97864;-66
2021/12/02 13:20:00;;;;;;;;;5.75;5.00;;;;;15.08;38.94;96888.38;6137557;28;98393;-66
2021/12/02 13:23:40;;;;;;;;;6.00;6.00;;;;;15.06;39.01;96891.41;6108132;28;97907;-66
2021/12/02 13:26:46;;;;;;;;;4.00;4.00;;;;;14.95;39.17;96878.31;6153424;28;97394;-66
2021/12/02 13:29:52;;;;;;;;;4.60;4.00;;;;;14.84;39.59;96888.53;6137643;28;97726;-65
2021/12/02 13:32:57;;;;;;;;;5.60;4.00;;;;;14.85;39.37;96889.34;6143230;28;97416;-66
2021/12/02 13:36:00;;;;;;;;;5.00;4.40;;;;;14.70;39.63;96885.78;6154245;28;98415;-67
2021/12/02 13:39:09;;;;;;;;;3.00;3.00;;;;;14.74;39.48;96886.81;6152654;28;97014;-66
2021/12/02 13:42:15;;;;;;;;;5.00;4.20;;;;;14.72;39.69;96889.00;6139142;28;98270;-66
2021/12/02 13:45:21;;;;;;;;;4.00;3.00;;;;;14.79;39.67;96885.91;6134952;28;98155;-67
2021/12/02 13:48:25;;;;;;;;;6.00;5.00;;;;;14.84;39.69;96887.72;6150597;28;98230;-67
2021/12/02 13:55:08;;;;;;;;;8.00;6.00;;;;;14.90;39.67;96891.97;6133133;28;99054;-65
2021/12/02 13:58:18;;;;;;;;;5.00;4.00;;;;;14.87;39.48;96908.81;6151311;28;97774;-66
2021/12/02 14:01:26;;;;;;;;;6.00;4.00;;;;;14.89;39.38;96912.06;6146931;28;97780;-66
2021/12/02 14:04:29;;;;;;;;;6.25;5.00;;;;;14.77;39.19;96914.41;6152638;28;97667;-66
2021/12/02 14:07:36;;;;;;;;;5.00;5.00;;;;;14.71;39.01;96917.22;6139299;28;101833;-66
2021/12/02 14:10:40;;;;;;;;;4.00;3.00;;;;;14.43;38.18;96915.50;6138871;28;98601;-66
2021/12/02 14:13:44;;;;;;;;;7.00;5.40;;;;;14.46;38.37;96914.13;6145844;28;98123;-66
2021/12/02 14:17:05;;;;;;;;;5.00;5.00;;;;;14.44;38.22;96914.41;6140514;28;97744;-67
2021/12/02 14:20:11;;;;;;;;;5.60;4.00;;;;;14.36;38.10;96920.50;6139748;28;97268;-68
2021/12/02 14:23:16;;;;;;;;;6.00;5.00;;;;;14.38;38.23;96923.69;6146951;28;96735;-65
2021/12/02 14:26:24;;;;;;;;;4.00;3.40;;;;;14.27;38.13;96919.47;6152948;28;97138;-66
2021/12/02 14:29:27;;;;;;;;;5.20;5.00;;;;;14.21;37.81;96939.66;6156766;28;97465;-66
2021/12/02 14:32:32;;;;;;;;;5.00;5.00;;;;;14.20;38.00;96946.16;6123447;28;98879;-65
2021/12/02 14:35:48;;;;;;;;;7.40;5.00;;;;;14.17;38.39;96938.63;6153230;28;97245;-66
2021/12/02 14:39:00;;;;;;;;;4.60;4.60;;;;;14.14;38.13;96947.31;6151506;28;96738;-66
2021/12/02 14:42:04;;;;;;;;;5.00;4.00;;;;;14.09;38.01;96956.31;6125309;28;100634;-67
2021/12/02 14:45:22;;;;;;;;;5.00;4.75;;;;;14.04;37.84;96956.38;6130765;28;96987;-66